createdAt,value
2022-12-03T00:00:49.953Z,41.10
2022-12-03T00:03:26.368Z,44.60
2022-12-03T00:05:58.035Z,41.80
2022-12-03T00:08:29.572Z,45.50
2022-12-03T00:11:01.063Z,43.70
2022-12-03T00:13:32.661Z,32.80
2022-12-03T00:16:04.272Z,39.20
2022-12-03T00:18:35.791Z,38.70
2022-12-03T00:21:07.691Z,37.30
2022-12-03T00:23:42.216Z,35.30
2022-12-03T00:26:14.390Z,39.80
2022-12-03T00:28:45.890Z,39.70
2022-12-03T00:31:17.746Z,40.30
2022-12-03T00:33:49.335Z,48.10
2022-12-03T00:36:21.118Z,42.00
2022-12-03T00:38:52.647Z,42.70
2022-12-03T00:41:24.221Z,36.90
2022-12-03T00:43:57.738Z,40.20
2022-12-03T00:48:59.343Z,39.10
2022-12-03T00:51:30.860Z,32.80
2022-12-03T00:54:02.380Z,37.70
2022-12-03T00:56:33.918Z,33.60
2022-12-03T00:59:05.403Z,42.40
2022-12-03T01:01:37.257Z,46.10
2022-12-03T01:04:09.333Z,45.90
2022-12-03T01:06:41.072Z,42.30
2022-12-03T01:09:12.605Z,45.50
2022-12-03T01:11:44.311Z,39.00
2022-12-03T01:14:18.011Z,49.60
2022-12-03T01:16:49.806Z,37.50
2022-12-03T01:19:21.412Z,40.30
2022-12-03T01:21:53.586Z,38.30
2022-12-03T01:24:25.340Z,38.40
2022-12-03T01:26:57.665Z,33.80
2022-12-03T01:29:29.261Z,33.50
2022-12-03T01:32:19.512Z,36.40
2022-12-03T01:34:53.103Z,33.00
2022-12-03T01:39:55.723Z,33.20
2022-12-03T01:42:29.599Z,39.50
2022-12-03T01:45:01.858Z,37.60
2022-12-03T01:47:36.833Z,37.40
2022-12-03T01:50:16.372Z,36.60
2022-12-03T01:52:48.112Z,35.30
2022-12-03T01:55:22.318Z,40.50
2022-12-03T01:57:56.689Z,42.60
2022-12-03T02:00:29.645Z,38.40
2022-12-03T02:03:04.983Z,34.30
2022-12-03T02:05:37.392Z,35.80
2022-12-03T02:08:29.305Z,38.80
2022-12-03T02:11:04.054Z,35.30
2022-12-03T02:13:36.257Z,33.00
2022-12-03T02:16:09.436Z,31.40
2022-12-03T02:18:40.978Z,28.90
2022-12-03T02:21:21.446Z,35.90
2022-12-03T02:24:03.547Z,36.20
2022-12-03T02:26:35.056Z,33.00
2022-12-03T02:29:06.705Z,35.70
2022-12-03T02:31:38.358Z,37.90
2022-12-03T02:34:11.572Z,35.60
2022-12-03T02:36:43.065Z,36.90
2022-12-03T02:39:14.510Z,37.30
2022-12-03T02:42:03.631Z,41.70
2022-12-03T02:44:35.146Z,36.20
2022-12-03T02:47:07.240Z,38.90
2022-12-03T02:49:38.844Z,37.70
2022-12-03T02:52:10.450Z,40.90
2022-12-03T02:54:42.145Z,39.40
2022-12-03T02:57:14.122Z,34.00
2022-12-03T02:59:46.560Z,36.90
2022-12-03T03:02:18.433Z,29.40
2022-12-03T03:04:50.592Z,27.00
2022-12-03T03:07:22.518Z,30.70
2022-12-03T03:09:54.196Z,24.70
2022-12-03T03:12:26.168Z,29.30
2022-12-03T03:14:58.548Z,32.40
2022-12-03T03:17:30.079Z,36.40
2022-12-03T03:20:02.265Z,35.60
2022-12-03T03:22:38.241Z,28.90
2022-12-03T03:25:14.109Z,33.70
2022-12-03T03:27:46.163Z,33.80
2022-12-03T03:30:18.187Z,38.70
2022-12-03T03:32:49.691Z,34.80
2022-12-03T03:35:21.377Z,38.80
2022-12-03T03:37:53.494Z,42.00
2022-12-03T03:40:25.617Z,38.40
2022-12-03T03:42:57.847Z,39.30
2022-12-03T03:45:29.879Z,38.90
2022-12-03T03:48:02.401Z,38.70
2022-12-03T03:50:34.618Z,35.80
2022-12-03T03:53:06.904Z,28.50
2022-12-03T03:55:38.924Z,31.80
2022-12-03T03:58:10.626Z,26.80
2022-12-03T04:00:43.044Z,32.20
2022-12-03T04:03:15.386Z,32.00
2022-12-03T04:05:47.333Z,35.60
2022-12-03T04:08:18.914Z,37.00
2022-12-03T04:11:08.570Z,39.00
2022-12-03T04:13:40.180Z,38.70
2022-12-03T04:16:11.750Z,38.50
2022-12-03T04:18:46.447Z,36.90
2022-12-03T04:21:38.175Z,35.00
2022-12-03T04:24:11.990Z,38.00
2022-12-03T04:27:01.525Z,40.10
2022-12-03T04:29:33.080Z,31.60
2022-12-03T04:32:22.766Z,28.50
2022-12-03T04:35:11.980Z,31.20
2022-12-03T04:37:43.614Z,30.40
2022-12-03T04:40:29.673Z,35.30
2022-12-03T04:43:01.167Z,27.80
2022-12-03T04:45:32.768Z,36.80
2022-12-03T04:48:04.399Z,35.70
2022-12-03T04:50:35.922Z,39.50
2022-12-03T04:53:07.445Z,42.90
2022-12-03T04:55:38.981Z,37.50
2022-12-03T04:58:10.667Z,37.30
2022-12-03T05:00:42.273Z,45.20
2022-12-03T05:03:13.737Z,40.40
2022-12-03T05:05:45.300Z,45.60
2022-12-03T05:08:16.972Z,45.30
2022-12-03T05:10:48.782Z,45.70
2022-12-03T05:13:20.332Z,45.10
2022-12-03T05:15:51.847Z,44.90
2022-12-03T05:18:23.318Z,40.60
2022-12-03T05:20:54.917Z,41.50
2022-12-03T05:23:26.741Z,41.20
2022-12-03T05:25:58.493Z,37.00
2022-12-03T05:28:30.107Z,43.90
2022-12-03T05:31:01.736Z,38.20
2022-12-03T05:33:33.493Z,50.20
2022-12-03T05:36:05.167Z,47.50
2022-12-03T05:38:36.798Z,54.50
2022-12-03T05:41:28.878Z,65.40
2022-12-03T05:44:00.398Z,58.60
2022-12-03T05:46:32.848Z,54.10
2022-12-03T05:49:04.568Z,49.70
2022-12-03T05:51:36.092Z,49.90
2022-12-03T05:54:08.838Z,50.20
2022-12-03T05:56:40.448Z,37.30
2022-12-03T05:59:12.010Z,41.00
2022-12-03T06:01:43.481Z,45.70
2022-12-03T06:04:15.090Z,35.60
2022-12-03T06:06:46.632Z,41.70
2022-12-03T06:09:18.170Z,39.20
2022-12-03T06:11:53.616Z,45.10
2022-12-03T06:14:25.147Z,38.70
2022-12-03T06:16:56.887Z,42.20
2022-12-03T06:19:28.444Z,41.50
2022-12-03T06:21:59.957Z,36.80
2022-12-03T06:24:31.652Z,50.50
2022-12-03T06:27:03.184Z,43.40
2022-12-03T06:29:34.790Z,39.40
2022-12-03T06:32:07.004Z,39.30
2022-12-03T06:34:38.936Z,34.40
2022-12-03T06:37:10.452Z,40.30
2022-12-03T06:39:42.043Z,42.00
2022-12-03T06:42:13.691Z,48.20
2022-12-03T06:44:45.293Z,55.60
2022-12-03T06:47:16.867Z,44.70
2022-12-03T06:49:48.375Z,45.70
2022-12-03T06:52:19.872Z,45.00
2022-12-03T06:54:51.581Z,43.30
2022-12-03T06:57:23.350Z,41.70
2022-12-03T06:59:55.055Z,36.10
2022-12-03T07:02:26.837Z,34.70
2022-12-03T07:04:58.808Z,36.70
2022-12-03T07:07:33.323Z,41.00
2022-12-03T07:10:05.644Z,45.80
2022-12-03T07:12:37.919Z,51.40
2022-12-03T07:15:11.429Z,41.70
2022-12-03T07:20:14.419Z,39.70
2022-12-03T07:22:46.041Z,44.80
2022-12-03T07:25:22.787Z,46.30
2022-12-03T07:27:55.144Z,45.80
2022-12-03T07:30:27.908Z,37.70
2022-12-03T07:32:59.602Z,42.60
2022-12-03T07:35:31.142Z,34.30
2022-12-03T07:38:02.780Z,42.60
2022-12-03T07:40:34.341Z,45.90
2022-12-03T07:43:05.900Z,47.80
2022-12-03T07:45:37.428Z,51.60
2022-12-03T07:48:09.345Z,56.80
2022-12-03T07:50:40.862Z,55.60
2022-12-03T07:53:12.379Z,46.10
2022-12-03T07:55:43.882Z,43.10
2022-12-03T07:58:15.414Z,41.50
2022-12-03T08:00:46.954Z,47.80
2022-12-03T08:03:18.478Z,45.10
2022-12-03T08:05:50.322Z,51.00
2022-12-03T08:08:21.937Z,57.90
2022-12-03T08:10:53.441Z,57.00
2022-12-03T08:13:24.953Z,53.60
2022-12-03T08:15:58.479Z,54.30
2022-12-03T08:21:00.989Z,55.80
2022-12-03T08:23:32.622Z,51.30
2022-12-03T08:26:13.293Z,53.10
2022-12-03T08:28:46.126Z,41.60
2022-12-03T08:31:20.996Z,49.20
2022-12-03T08:33:55.144Z,53.40
2022-12-03T08:36:30.357Z,45.90
2022-12-03T08:39:15.915Z,48.80
2022-12-03T08:42:13.543Z,54.20
2022-12-03T08:44:46.059Z,62.10
2022-12-03T08:47:21.456Z,46.70
2022-12-03T08:52:47.121Z,46.80
2022-12-03T08:55:35.988Z,42.80
2022-12-03T09:01:43.432Z,46.70
2022-12-03T09:04:25.327Z,43.50
2022-12-03T09:06:58.065Z,38.40
2022-12-03T09:09:30.352Z,47.90
2022-12-03T09:12:02.942Z,40.00
2022-12-03T09:14:34.440Z,54.50
2022-12-03T09:17:06.529Z,48.40
2022-12-03T09:19:44.257Z,57.90
2022-12-03T09:22:17.555Z,43.70
2022-12-03T09:24:49.063Z,56.50
2022-12-03T09:27:22.557Z,52.60
2022-12-03T09:32:24.036Z,57.80
2022-12-03T09:34:56.049Z,53.10
2022-12-03T09:37:27.810Z,51.70
2022-12-03T09:39:59.317Z,52.30
2022-12-03T09:42:30.858Z,55.00
2022-12-03T09:45:02.999Z,47.70
2022-12-03T09:47:35.323Z,46.50
2022-12-03T09:50:13.721Z,59.30
2022-12-03T09:52:46.831Z,62.80
2022-12-03T09:55:22.377Z,58.60
2022-12-03T09:57:56.239Z,65.90
2022-12-03T10:00:30.387Z,52.60
2022-12-03T10:03:05.687Z,54.60
2022-12-03T10:05:37.293Z,55.70
2022-12-03T10:08:11.814Z,58.10
2022-12-03T10:10:44.940Z,52.80
2022-12-03T10:13:25.845Z,48.20
2022-12-03T10:16:00.090Z,43.00
2022-12-03T10:18:39.803Z,43.40
2022-12-03T10:24:25.869Z,40.20
2022-12-03T10:26:59.792Z,66.30
2022-12-03T10:38:08.203Z,46.00
2022-12-03T10:43:22.530Z,51.40
2022-12-03T10:46:13.504Z,52.70
2022-12-03T10:48:45.079Z,49.90
2022-12-03T10:51:21.362Z,52.70
2022-12-03T10:53:54.338Z,57.00
2022-12-03T10:56:27.726Z,64.90
2022-12-03T10:58:59.826Z,56.20
2022-12-03T11:01:32.900Z,55.10
2022-12-03T11:04:06.335Z,56.10
2022-12-03T11:09:20.143Z,60.90
2022-12-03T11:11:52.468Z,60.00
2022-12-03T11:15:05.310Z,65.30
2022-12-03T11:17:48.957Z,49.50
2022-12-03T11:21:15.268Z,54.20
2022-12-03T11:24:21.277Z,69.40
2022-12-03T11:27:24.921Z,63.90
2022-12-03T11:30:01.737Z,53.20
2022-12-03T11:33:07.353Z,68.90
2022-12-03T11:36:02.703Z,62.70
2022-12-03T11:41:36.048Z,53.20
2022-12-03T11:44:31.390Z,52.20
2022-12-03T11:47:14.873Z,53.60
2022-12-03T11:49:50.386Z,49.10
2022-12-03T11:55:27.476Z,70.00
2022-12-03T11:58:03.822Z,78.40
2022-12-03T12:00:35.390Z,75.80
2022-12-03T12:09:03.905Z,77.90
2022-12-03T12:11:37.039Z,81.50
2022-12-03T12:14:09.690Z,76.40
2022-12-03T12:16:53.160Z,65.80
2022-12-03T12:22:52.975Z,63.90
2022-12-03T12:25:43.758Z,61.10
2022-12-03T12:31:10.509Z,76.70
2022-12-03T12:36:32.274Z,72.20
2022-12-03T12:39:33.320Z,64.40
2022-12-03T12:42:10.066Z,67.50
2022-12-03T12:44:44.034Z,40.80
2022-12-03T12:47:15.669Z,79.60
2022-12-03T12:49:51.741Z,93.60
2022-12-03T12:55:14.952Z,97.20
2022-12-03T12:57:49.717Z,63.70
2022-12-03T13:00:24.929Z,74.70
2022-12-03T13:03:01.204Z,73.40
2022-12-03T13:08:32.144Z,71.30
2022-12-03T13:11:17.788Z,81.40
2022-12-03T13:14:01.815Z,86.70
2022-12-03T13:16:38.731Z,79.90
2022-12-03T13:28:23.948Z,63.40
2022-12-03T13:30:58.680Z,52.00
2022-12-03T13:33:31.022Z,72.70
2022-12-03T13:36:07.085Z,95.70
2022-12-03T13:38:38.747Z,80.50
2022-12-03T13:41:38.201Z,63.00
2022-12-03T13:44:21.077Z,71.00
2022-12-03T13:49:42.739Z,68.30
2022-12-03T13:52:20.543Z,89.00
2022-12-03T13:54:55.078Z,78.30
2022-12-03T13:57:27.125Z,58.30
2022-12-03T13:59:58.983Z,70.40
2022-12-03T14:02:30.601Z,72.30
2022-12-03T14:05:02.704Z,69.50
2022-12-03T14:07:34.462Z,82.50
2022-12-03T14:10:08.313Z,87.10
2022-12-03T14:12:48.488Z,79.60
2022-12-03T14:15:23.577Z,80.50
2022-12-03T14:18:02.913Z,77.80
2022-12-03T14:20:41.605Z,96.60
2022-12-03T14:23:13.189Z,63.40
2022-12-03T14:25:44.997Z,56.40
2022-12-03T14:28:16.484Z,86.10
2022-12-03T14:30:48.814Z,70.80
2022-12-03T14:33:23.114Z,79.20
2022-12-03T14:35:55.996Z,90.10
2022-12-03T14:38:27.548Z,81.70
2022-12-03T14:40:59.158Z,75.10
2022-12-03T14:43:38.208Z,50.00
2022-12-03T14:46:21.886Z,61.10
2022-12-03T14:51:28.757Z,101.80
2022-12-03T14:54:00.387Z,80.80
2022-12-03T14:56:34.722Z,65.20
2022-12-03T14:59:07.885Z,61.70
2022-12-03T15:01:39.641Z,83.30
2022-12-03T15:04:23.287Z,81.80
2022-12-03T15:06:54.833Z,73.30
2022-12-03T15:09:26.603Z,83.40
2022-12-03T15:11:59.478Z,82.00
2022-12-03T15:14:33.019Z,99.80
2022-12-03T15:17:05.028Z,84.40
2022-12-03T15:22:25.877Z,81.30
2022-12-03T15:24:57.424Z,68.00
2022-12-03T15:27:28.934Z,75.40
2022-12-03T15:30:00.505Z,80.10
2022-12-03T15:32:38.655Z,85.10
2022-12-03T15:35:15.000Z,79.00
2022-12-03T15:43:27.498Z,76.40
2022-12-03T15:45:59.050Z,75.10
2022-12-03T15:48:30.701Z,72.80
2022-12-03T15:51:02.205Z,68.90
2022-12-03T15:53:33.787Z,97.10
2022-12-03T15:56:06.103Z,91.80
2022-12-03T16:01:27.553Z,83.80
2022-12-03T16:03:59.245Z,96.90
2022-12-03T16:06:33.860Z,107.00
2022-12-03T16:11:50.960Z,97.50
2022-12-03T16:14:22.519Z,95.60
2022-12-03T16:19:46.681Z,68.80
2022-12-03T16:22:18.676Z,93.70
2022-12-03T16:33:27.058Z,67.10
2022-12-03T16:36:02.953Z,59.00
2022-12-03T16:38:42.185Z,81.40
2022-12-03T16:41:15.084Z,85.50
2022-12-03T16:43:48.584Z,87.70
2022-12-03T16:49:06.451Z,60.00
2022-12-03T16:51:37.983Z,53.30
2022-12-03T16:54:11.808Z,65.90
2022-12-03T16:59:33.969Z,79.00
2022-12-03T17:02:05.768Z,77.90
2022-12-03T17:04:37.475Z,72.00
2022-12-03T17:07:09.017Z,93.40
2022-12-03T17:09:41.039Z,86.20
2022-12-03T17:12:12.532Z,75.20
2022-12-03T17:14:44.113Z,65.40
2022-12-03T17:17:15.701Z,79.00
2022-12-03T17:19:47.210Z,72.20
2022-12-03T17:22:18.676Z,63.30
2022-12-03T17:24:50.348Z,73.10
2022-12-03T17:27:23.237Z,72.40
2022-12-03T17:29:54.928Z,83.50
2022-12-03T17:32:26.761Z,78.10
2022-12-03T17:34:58.572Z,99.30
2022-12-03T17:37:30.109Z,91.20
2022-12-03T17:40:01.624Z,85.40
2022-12-03T17:42:33.361Z,80.00
2022-12-03T17:45:05.882Z,73.00
2022-12-03T17:47:37.357Z,53.00
2022-12-03T17:50:12.025Z,64.50
2022-12-03T17:52:43.478Z,64.70
2022-12-03T17:55:24.158Z,71.70
2022-12-03T17:57:59.981Z,71.40
2022-12-03T18:00:31.941Z,62.90
2022-12-03T18:03:03.484Z,74.50
2022-12-03T18:05:35.007Z,62.40
2022-12-03T18:08:07.566Z,57.20
2022-12-03T18:10:39.158Z,79.30
2022-12-03T18:13:11.036Z,69.30
2022-12-03T18:15:42.721Z,68.10
2022-12-03T18:18:14.531Z,86.90
2022-12-03T18:20:46.042Z,92.40
2022-12-03T18:23:17.966Z,96.70
2022-12-03T18:25:49.926Z,93.60
2022-12-03T18:28:21.468Z,92.00
2022-12-03T18:30:53.147Z,96.30
2022-12-03T18:33:24.827Z,99.90
2022-12-03T18:35:58.665Z,81.10
2022-12-03T18:38:32.363Z,81.90
2022-12-03T18:41:04.908Z,78.60
2022-12-03T18:43:36.608Z,95.10
2022-12-03T18:46:31.306Z,97.30
2022-12-03T18:49:06.204Z,87.20
2022-12-03T18:51:38.192Z,82.40
2022-12-03T18:54:14.272Z,82.50
2022-12-03T18:56:45.861Z,76.70
2022-12-03T18:59:17.305Z,65.40
2022-12-03T19:01:48.835Z,60.90
2022-12-03T19:04:20.339Z,95.40
2022-12-03T19:06:52.379Z,92.10
2022-12-03T19:09:23.904Z,85.80
2022-12-03T19:11:55.462Z,110.60
2022-12-03T19:14:27.469Z,102.70
2022-12-03T19:16:59.288Z,99.50
2022-12-03T19:19:31.049Z,97.70
2022-12-03T19:22:02.757Z,96.00
2022-12-03T19:24:34.371Z,85.30
2022-12-03T19:27:05.911Z,93.20
2022-12-03T19:29:37.415Z,94.00
2022-12-03T19:32:09.961Z,79.10
2022-12-03T19:34:41.793Z,96.90
2022-12-03T19:37:13.285Z,87.60
2022-12-03T19:39:44.845Z,85.70
2022-12-03T19:42:17.327Z,75.90
2022-12-03T19:44:48.836Z,92.70
2022-12-03T19:47:20.316Z,75.10
2022-12-03T19:49:53.824Z,75.90
2022-12-03T19:52:25.723Z,83.60
2022-12-03T19:54:57.245Z,95.20
2022-12-03T19:57:29.318Z,95.70
2022-12-03T20:00:01.165Z,94.10
2022-12-03T20:02:32.739Z,98.00
2022-12-03T20:05:04.628Z,88.50
2022-12-03T20:07:36.139Z,86.70
2022-12-03T20:10:09.659Z,83.60
2022-12-03T20:12:41.164Z,90.40
2022-12-03T20:15:14.967Z,100.50
2022-12-03T20:17:46.428Z,95.90
2022-12-03T20:20:18.237Z,103.50
2022-12-03T20:22:49.855Z,96.60
2022-12-03T20:25:21.876Z,107.10
2022-12-03T20:27:53.405Z,114.10
2022-12-03T20:30:24.905Z,113.00
2022-12-03T20:32:56.425Z,103.10
2022-12-03T20:35:28.114Z,109.20
2022-12-03T20:37:59.685Z,109.50
2022-12-03T20:40:31.389Z,95.30
2022-12-03T20:43:02.881Z,87.60
2022-12-03T20:45:34.413Z,84.60
2022-12-03T20:48:08.240Z,79.10
2022-12-03T20:50:41.668Z,83.30
2022-12-03T20:53:27.676Z,102.00
2022-12-03T20:56:00.056Z,108.50
2022-12-03T20:58:32.116Z,124.00
2022-12-03T21:01:15.683Z,122.60
2022-12-03T21:03:48.368Z,122.00
2022-12-03T21:06:21.067Z,124.90
2022-12-03T21:08:55.108Z,130.20
2022-12-03T21:11:29.544Z,110.70
2022-12-03T21:14:01.347Z,113.20
2022-12-03T21:19:27.536Z,90.30
2022-12-03T21:21:59.142Z,78.40
2022-12-03T21:24:30.934Z,91.90
2022-12-03T21:27:02.724Z,101.70
2022-12-03T21:29:34.297Z,101.20
2022-12-03T21:32:06.004Z,92.70
2022-12-03T21:34:37.555Z,87.80
2022-12-03T21:37:09.032Z,98.90
2022-12-03T21:39:40.804Z,102.60
2022-12-03T21:42:34.189Z,102.70
2022-12-03T21:45:04.030Z,101.90
2022-12-03T21:47:37.536Z,94.90
2022-12-03T21:50:12.161Z,100.90
2022-12-03T21:52:44.297Z,91.90
2022-12-03T21:55:15.833Z,96.00
2022-12-03T21:57:47.363Z,96.40
2022-12-03T22:00:20.104Z,90.20
2022-12-03T22:02:52.516Z,104.00
2022-12-03T22:05:24.419Z,93.80
2022-12-03T22:07:55.923Z,85.00
2022-12-03T22:10:27.461Z,80.40
2022-12-03T22:12:59.388Z,75.30
2022-12-03T22:15:30.875Z,80.40
2022-12-03T22:18:02.377Z,70.80
2022-12-03T22:20:33.975Z,77.60
2022-12-03T22:23:05.549Z,68.80
2022-12-03T22:25:37.057Z,75.20
2022-12-03T22:28:08.672Z,74.50
2022-12-03T22:30:42.806Z,77.90
2022-12-03T22:33:14.370Z,82.70
2022-12-03T22:35:54.735Z,77.90
2022-12-03T22:38:26.785Z,77.50
2022-12-03T22:40:58.837Z,74.80
2022-12-03T22:43:30.393Z,76.20
2022-12-03T22:46:02.171Z,77.10
2022-12-03T22:48:35.908Z,72.90
2022-12-03T22:51:13.892Z,75.70
2022-12-03T22:53:45.425Z,62.80
2022-12-03T22:56:17.330Z,61.20
2022-12-03T22:58:48.881Z,61.90
2022-12-03T23:01:26.225Z,55.90
2022-12-03T23:03:58.577Z,62.80
2022-12-03T23:06:31.501Z,67.50
2022-12-03T23:09:03.133Z,65.90
2022-12-03T23:11:35.145Z,69.10
2022-12-03T23:14:06.872Z,74.10
2022-12-03T23:16:38.438Z,76.80
2022-12-03T23:19:10.019Z,77.60
2022-12-03T23:21:41.559Z,72.30
2022-12-03T23:24:13.617Z,71.50
2022-12-03T23:26:45.431Z,65.40
2022-12-03T23:29:17.143Z,69.50
2022-12-03T23:31:48.772Z,79.10
2022-12-03T23:34:20.389Z,72.30
2022-12-03T23:36:51.992Z,75.20
2022-12-03T23:39:23.491Z,71.70
2022-12-03T23:41:55.308Z,76.10
2022-12-03T23:44:28.063Z,65.20
2022-12-03T23:46:59.720Z,64.40
2022-12-03T23:49:32.097Z,63.80
2022-12-03T23:52:03.634Z,52.50
2022-12-03T23:54:35.215Z,55.90
2022-12-03T23:57:07.342Z,48.80
2022-12-03T23:59:39.204Z,48.20
